createdAt,value
2023-04-15T00:00:58.590Z,4.43
2023-04-15T00:03:25.606Z,4.60
2023-04-15T00:05:52.257Z,4.60
2023-04-15T00:08:19.457Z,4.13
2023-04-15T00:10:46.815Z,4.63
2023-04-15T00:13:13.416Z,4.53
2023-04-15T00:15:39.924Z,4.43
2023-04-15T00:18:08.231Z,4.45
2023-04-15T00:20:35.483Z,4.70
2023-04-15T00:23:04.010Z,4.25
2023-04-15T00:25:30.885Z,5.10
2023-04-15T00:27:57.376Z,4.22
2023-04-15T00:30:23.986Z,4.35
2023-04-15T00:32:50.849Z,4.45
2023-04-15T00:35:17.479Z,4.72
2023-04-15T00:37:46.042Z,4.60
2023-04-15T00:40:13.695Z,4.60
2023-04-15T00:42:40.322Z,4.40
2023-04-15T00:45:08.737Z,5.13
2023-04-15T00:47:37.607Z,4.18
2023-04-15T00:50:04.994Z,4.63
2023-04-15T00:52:31.991Z,4.15
2023-04-15T00:54:58.968Z,4.47
2023-04-15T00:57:27.157Z,4.10
2023-04-15T00:59:54.765Z,4.30
2023-04-15T01:02:21.891Z,3.78
2023-04-15T01:04:48.825Z,5.00
2023-04-15T01:07:15.304Z,3.90
2023-04-15T01:09:42.324Z,4.22
2023-04-15T01:12:11.987Z,4.18
2023-04-15T01:14:38.680Z,4.10
2023-04-15T01:17:05.130Z,4.22
2023-04-15T01:19:31.686Z,4.57
2023-04-15T01:21:58.212Z,4.03
2023-04-15T01:24:28.084Z,5.00
2023-04-15T01:26:54.577Z,4.03
2023-04-15T01:29:21.364Z,4.53
2023-04-15T01:31:55.961Z,4.93
2023-04-15T01:34:22.528Z,3.88
2023-04-15T01:36:51.913Z,4.70
2023-04-15T01:39:18.355Z,4.03
2023-04-15T01:41:44.853Z,4.43
2023-04-15T01:44:11.629Z,4.70
2023-04-15T01:46:40.732Z,4.43
2023-04-15T01:49:07.667Z,4.47
2023-04-15T01:51:34.252Z,4.57
2023-04-15T01:54:00.689Z,4.35
2023-04-15T01:56:27.126Z,4.50
2023-04-15T01:58:53.653Z,4.20
2023-04-15T02:01:20.754Z,4.05
2023-04-15T02:03:48.047Z,4.05
2023-04-15T02:06:14.864Z,4.28
2023-04-15T02:08:41.339Z,4.90
2023-04-15T02:11:08.371Z,4.60
2023-04-15T02:13:34.978Z,4.65
2023-04-15T02:16:01.436Z,4.68
2023-04-15T02:18:27.842Z,4.78
2023-04-15T02:20:54.390Z,4.57
2023-04-15T02:23:20.822Z,4.72
2023-04-15T02:25:53.432Z,5.18
2023-04-15T02:28:21.529Z,4.38
2023-04-15T02:30:52.471Z,5.35
2023-04-15T02:33:19.288Z,5.38
2023-04-15T02:35:45.834Z,5.25
2023-04-15T02:38:14.167Z,5.32
2023-04-15T02:40:40.918Z,4.55
2023-04-15T02:43:07.695Z,4.20
2023-04-15T02:45:34.368Z,3.97
2023-04-15T02:48:06.158Z,4.82
2023-04-15T02:50:33.022Z,5.25
2023-04-15T02:53:01.260Z,4.53
2023-04-15T02:55:28.255Z,5.30
2023-04-15T02:57:54.759Z,4.18
2023-04-15T03:00:21.696Z,4.25
2023-04-15T03:02:49.897Z,4.95
2023-04-15T03:05:16.601Z,4.40
2023-04-15T03:07:43.054Z,4.70
2023-04-15T03:10:10.544Z,5.20
2023-04-15T03:12:36.987Z,4.47
2023-04-15T03:15:03.776Z,5.53
2023-04-15T03:17:30.382Z,5.18
2023-04-15T03:19:56.841Z,4.63
2023-04-15T03:22:23.284Z,4.80
2023-04-15T03:24:49.867Z,4.78
2023-04-15T03:27:16.322Z,4.72
2023-04-15T03:29:42.987Z,5.18
2023-04-15T03:32:09.397Z,5.32
2023-04-15T03:34:36.059Z,4.75
2023-04-15T03:37:02.494Z,5.22
2023-04-15T03:39:28.950Z,5.03
2023-04-15T03:41:56.399Z,4.53
2023-04-15T03:44:22.847Z,5.85
2023-04-15T03:46:49.414Z,5.30
2023-04-15T03:49:16.307Z,5.32
2023-04-15T03:51:42.798Z,5.10
2023-04-15T03:54:09.258Z,5.43
2023-04-15T03:56:35.908Z,4.95
2023-04-15T03:59:02.643Z,5.57
2023-04-15T04:01:29.451Z,5.63
2023-04-15T04:03:56.086Z,5.38
2023-04-15T04:06:22.789Z,5.65
2023-04-15T04:08:49.263Z,5.82
2023-04-15T04:11:16.276Z,6.40
2023-04-15T04:13:42.716Z,6.22
2023-04-15T04:16:09.253Z,6.68
2023-04-15T04:18:36.068Z,6.90
2023-04-15T04:21:02.718Z,7.25
2023-04-15T04:23:29.257Z,6.38
2023-04-15T04:25:55.765Z,6.93
2023-04-15T04:28:22.343Z,6.95
2023-04-15T04:30:48.924Z,6.47
2023-04-15T04:33:15.398Z,6.25
2023-04-15T04:35:42.028Z,7.32
2023-04-15T04:38:08.674Z,6.30
2023-04-15T04:40:35.260Z,5.72
2023-04-15T04:43:01.790Z,7.70
2023-04-15T04:45:28.371Z,7.75
2023-04-15T04:47:55.734Z,6.90
2023-04-15T04:50:22.553Z,7.63
2023-04-15T04:52:49.111Z,7.07
2023-04-15T04:55:15.967Z,7.03
2023-04-15T04:57:42.512Z,6.65
2023-04-15T05:00:09.793Z,8.00
2023-04-15T05:02:36.806Z,7.43
2023-04-15T05:05:03.598Z,7.22
2023-04-15T05:07:30.029Z,7.63
2023-04-15T05:09:56.674Z,7.60
2023-04-15T05:12:23.458Z,6.78
2023-04-15T05:14:50.019Z,6.80
2023-04-15T05:17:16.520Z,7.60
2023-04-15T05:19:42.962Z,7.15
2023-04-15T05:22:09.591Z,7.25
2023-04-15T05:24:36.453Z,7.15
2023-04-15T05:27:03.006Z,7.30
2023-04-15T05:29:29.580Z,7.47
2023-04-15T05:31:56.742Z,7.38
2023-04-15T05:34:23.262Z,6.40
2023-04-15T05:36:49.729Z,7.32
2023-04-15T05:39:16.179Z,7.32
2023-04-15T05:41:42.671Z,8.02
2023-04-15T05:44:09.276Z,7.55
2023-04-15T05:46:35.909Z,8.38
2023-04-15T05:49:02.495Z,7.53
2023-04-15T05:51:29.672Z,7.85
2023-04-15T05:53:56.379Z,7.05
2023-04-15T05:56:22.924Z,7.18
2023-04-15T05:58:53.820Z,7.43
2023-04-15T06:01:20.721Z,7.45
2023-04-15T06:03:47.352Z,7.68
2023-04-15T06:06:14.378Z,7.95
2023-04-15T06:08:41.108Z,7.63
2023-04-15T06:11:07.562Z,7.43
2023-04-15T06:13:35.150Z,7.60
2023-04-15T06:16:01.844Z,7.93
2023-04-15T06:18:28.304Z,8.40
2023-04-15T06:20:54.847Z,7.03
2023-04-15T06:23:21.467Z,7.40
2023-04-15T06:25:48.173Z,8.02
2023-04-15T06:28:14.636Z,8.32
2023-04-15T06:30:41.149Z,8.00
2023-04-15T06:33:07.771Z,13.23
2023-04-15T06:35:34.376Z,9.38
2023-04-15T06:38:00.939Z,7.68
2023-04-15T06:40:27.845Z,9.18
2023-04-15T06:42:55.639Z,8.15
2023-04-15T06:45:22.358Z,8.35
2023-04-15T06:47:48.869Z,7.15
2023-04-15T06:50:15.390Z,9.00
2023-04-15T06:52:42.368Z,7.88
2023-04-15T06:55:08.954Z,8.32
2023-04-15T06:57:36.042Z,7.13
2023-04-15T07:00:05.742Z,7.22
2023-04-15T07:02:32.455Z,8.10
2023-04-15T07:04:59.262Z,8.25
2023-04-15T07:07:26.450Z,7.38
2023-04-15T07:09:53.836Z,6.88
2023-04-15T07:12:20.977Z,7.60
2023-04-15T07:14:47.779Z,9.30
2023-04-15T07:17:36.113Z,7.30
2023-04-15T07:20:04.708Z,8.23
2023-04-15T07:22:33.912Z,9.40
2023-04-15T07:25:01.168Z,8.43
2023-04-15T07:27:27.803Z,7.90
2023-04-15T07:30:00.747Z,7.53
2023-04-15T07:34:10.496Z,6.57
2023-04-15T07:35:57.303Z,7.88
2023-04-15T07:38:26.878Z,7.68
2023-04-15T07:40:56.776Z,6.63
2023-04-15T07:44:22.631Z,7.35
2023-04-15T07:46:50.459Z,7.82
2023-04-15T07:49:19.352Z,6.15
2023-04-15T07:51:46.008Z,7.35
2023-04-15T07:58:10.746Z,5.90
2023-04-15T08:00:38.572Z,6.32
2023-04-15T08:14:50.986Z,6.20
2023-04-15T08:21:34.152Z,5.93
2023-04-15T08:24:01.731Z,5.93
2023-04-15T08:26:28.648Z,5.35
2023-04-15T08:29:30.610Z,6.60
2023-04-15T08:31:57.482Z,5.32
2023-04-15T08:38:09.635Z,5.38
2023-04-15T08:40:43.253Z,5.53
2023-04-15T08:43:19.265Z,5.97
2023-04-15T08:45:46.742Z,6.47
2023-04-15T08:48:16.892Z,6.30
2023-04-15T08:50:44.136Z,5.88
2023-04-15T08:53:15.617Z,6.25
2023-04-15T08:55:46.847Z,5.68
2023-04-15T08:58:14.408Z,5.68
2023-04-15T09:00:42.153Z,5.65
2023-04-15T09:03:09.724Z,5.40
2023-04-15T09:05:37.511Z,5.43
2023-04-15T09:08:05.489Z,4.53
2023-04-15T09:10:33.826Z,5.70
2023-04-15T09:13:02.063Z,5.60
2023-04-15T09:15:29.877Z,4.88
2023-04-15T09:17:57.169Z,5.38
2023-04-15T09:20:23.877Z,4.90
2023-04-15T09:22:51.967Z,4.97
2023-04-15T09:25:24.857Z,4.88
2023-04-15T09:27:53.685Z,4.78
2023-04-15T09:30:20.659Z,5.38
2023-04-15T09:32:58.700Z,4.72
2023-04-15T09:35:27.553Z,5.47
2023-04-15T09:38:02.330Z,5.65
2023-04-15T09:40:33.668Z,5.55
2023-04-15T09:43:02.067Z,5.25
2023-04-15T09:45:29.862Z,5.20
2023-04-15T09:50:22.096Z,4.83
2023-04-15T09:52:48.689Z,5.05
2023-04-15T09:55:16.058Z,4.47
2023-04-15T09:57:44.386Z,4.88
2023-04-15T10:00:11.510Z,5.00
2023-04-15T10:05:03.862Z,4.23
2023-04-15T10:07:30.844Z,4.68
2023-04-15T10:09:59.799Z,4.20
2023-04-15T10:12:27.260Z,4.93
2023-04-15T10:14:58.452Z,4.55
2023-04-15T10:19:55.683Z,4.10
2023-04-15T10:22:28.168Z,5.10
2023-04-15T10:24:56.367Z,4.93
2023-04-15T10:27:23.974Z,4.32
2023-04-15T10:29:54.505Z,4.15
2023-04-15T10:32:22.130Z,4.07
2023-04-15T10:34:51.408Z,4.15
2023-04-15T10:37:23.588Z,4.53
2023-04-15T10:39:52.253Z,4.25
2023-04-15T10:42:19.743Z,3.60
2023-04-15T10:44:51.891Z,3.67
2023-04-15T10:47:21.189Z,3.78
2023-04-15T10:50:05.600Z,3.25
2023-04-15T10:52:32.116Z,3.45
2023-04-15T10:55:10.748Z,3.33
2023-04-15T10:57:41.371Z,3.70
2023-04-15T11:00:14.933Z,3.05
2023-04-15T11:03:10.648Z,3.53
2023-04-15T11:05:43.293Z,3.20
2023-04-15T11:08:11.536Z,3.25
2023-04-15T11:10:37.963Z,3.45
2023-04-15T11:13:15.588Z,3.40
2023-04-15T11:15:47.231Z,3.10
2023-04-15T11:18:28.477Z,2.90
2023-04-15T11:21:07.094Z,2.80
2023-04-15T11:23:47.327Z,2.70
2023-04-15T11:26:14.030Z,2.90
2023-04-15T11:28:48.078Z,2.80
2023-04-15T11:31:19.916Z,2.63
2023-04-15T11:34:02.197Z,3.05
2023-04-15T11:36:30.197Z,2.97
2023-04-15T11:38:59.212Z,3.10
2023-04-15T11:41:25.958Z,3.13
2023-04-15T11:43:52.773Z,3.03
2023-04-15T11:46:32.036Z,3.10
2023-04-15T11:49:00.253Z,2.58
2023-04-15T11:54:33.433Z,2.85
2023-04-15T11:57:02.488Z,3.47
2023-04-15T11:59:45.318Z,3.33
2023-04-15T12:02:53.192Z,3.00
2023-04-15T12:05:37.991Z,3.00
2023-04-15T12:08:04.639Z,2.80
2023-04-15T12:10:34.878Z,3.08
2023-04-15T12:13:03.621Z,2.72
2023-04-15T12:15:33.325Z,2.60
2023-04-15T12:18:00.056Z,2.72
2023-04-15T12:20:28.343Z,2.80
2023-04-15T12:23:05.844Z,2.65
2023-04-15T12:25:35.704Z,2.58
2023-04-15T12:28:02.181Z,2.67
2023-04-15T12:30:49.843Z,3.10
2023-04-15T12:33:16.308Z,2.75
2023-04-15T12:35:42.847Z,2.60
2023-04-15T12:40:51.230Z,2.50
2023-04-15T12:48:41.424Z,3.00
2023-04-15T12:51:08.071Z,2.95
2023-04-15T12:53:34.563Z,3.00
2023-04-15T12:56:01.535Z,3.33
2023-04-15T12:58:28.436Z,2.80
2023-04-15T13:00:54.867Z,2.85
2023-04-15T13:03:21.504Z,2.78
2023-04-15T13:05:48.044Z,2.80
2023-04-15T13:08:14.577Z,2.72
2023-04-15T13:10:42.372Z,2.58
2023-04-15T13:13:09.045Z,2.97
2023-04-15T13:15:35.515Z,2.63
2023-04-15T13:18:02.123Z,2.72
2023-04-15T13:20:28.746Z,2.53
2023-04-15T13:22:55.235Z,2.58
2023-04-15T13:25:21.811Z,2.72
2023-04-15T13:27:48.232Z,2.47
2023-04-15T13:30:14.781Z,2.88
2023-04-15T13:32:41.267Z,3.25
2023-04-15T13:35:08.142Z,3.03
2023-04-15T13:37:34.732Z,3.10
2023-04-15T13:40:01.698Z,2.78
2023-04-15T13:42:28.143Z,2.60
2023-04-15T13:44:54.678Z,2.95
2023-04-15T13:47:21.376Z,2.80
2023-04-15T13:49:47.979Z,2.67
2023-04-15T13:52:14.696Z,2.40
2023-04-15T13:54:41.104Z,2.40
2023-04-15T13:57:07.835Z,2.53
2023-04-15T13:59:37.371Z,2.60
2023-04-15T14:02:04.212Z,2.97
2023-04-15T14:04:32.297Z,2.45
2023-04-15T14:06:59.011Z,3.05
2023-04-15T14:09:26.516Z,2.90
2023-04-15T14:11:54.414Z,2.90
2023-04-15T14:14:22.460Z,3.20
2023-04-15T14:16:49.011Z,2.80
2023-04-15T14:19:15.475Z,2.63
2023-04-15T14:21:42.065Z,2.83
2023-04-15T14:24:08.803Z,2.75
2023-04-15T14:26:35.433Z,2.80
2023-04-15T14:29:02.133Z,2.67
2023-04-15T14:31:28.723Z,2.70
2023-04-15T14:33:55.264Z,2.85
2023-04-15T14:36:21.800Z,3.00
2023-04-15T14:38:48.768Z,3.00
2023-04-15T14:41:16.245Z,3.30
2023-04-15T14:43:42.817Z,2.75
2023-04-15T14:46:10.768Z,3.15
2023-04-15T14:48:37.598Z,3.28
2023-04-15T14:51:04.242Z,3.28
2023-04-15T14:53:30.650Z,3.03
2023-04-15T14:55:57.261Z,2.88
2023-04-15T14:58:23.703Z,2.63
2023-04-15T15:00:50.284Z,2.80
2023-04-15T15:03:17.022Z,2.85
2023-04-15T15:05:46.311Z,2.90
2023-04-15T15:08:13.795Z,2.38
2023-04-15T15:10:49.247Z,3.10
2023-04-15T15:13:16.713Z,2.85
2023-04-15T15:15:43.210Z,2.50
2023-04-15T15:18:10.707Z,3.13
2023-04-15T15:20:37.263Z,2.83
2023-04-15T15:23:03.689Z,3.85
2023-04-15T15:25:30.350Z,3.05
2023-04-15T15:27:57.720Z,3.08
2023-04-15T15:30:24.382Z,2.72
2023-04-15T15:32:51.398Z,3.33
2023-04-15T15:35:17.989Z,4.35
2023-04-15T15:37:45.740Z,3.47
2023-04-15T15:40:12.619Z,3.72
2023-04-15T15:42:39.114Z,3.63
2023-04-15T15:45:08.251Z,3.67
2023-04-15T15:47:34.864Z,3.45
2023-04-15T15:50:06.052Z,3.58
2023-04-15T15:52:32.759Z,3.95
2023-04-15T15:54:59.316Z,3.80
2023-04-15T15:57:26.056Z,3.42
2023-04-15T16:00:02.014Z,4.00
2023-04-15T16:03:04.381Z,8.13
2023-04-15T16:05:24.339Z,4.13
2023-04-15T16:07:50.910Z,4.95
2023-04-15T16:10:17.406Z,3.92
2023-04-15T16:12:44.714Z,4.25
2023-04-15T16:15:12.362Z,3.78
2023-04-15T16:17:38.920Z,4.07
2023-04-15T16:20:06.399Z,4.20
2023-04-15T16:22:34.713Z,3.88
2023-04-15T16:25:02.083Z,3.40
2023-04-15T16:27:28.554Z,3.90
2023-04-15T16:29:55.008Z,4.80
2023-04-15T16:32:21.761Z,3.83
2023-04-15T16:34:48.447Z,4.18
2023-04-15T16:37:14.993Z,4.43
2023-04-15T16:39:41.601Z,4.10
2023-04-15T16:42:08.918Z,4.28
2023-04-15T16:44:35.386Z,4.47
2023-04-15T16:47:03.038Z,4.50
2023-04-15T16:49:30.027Z,4.93
2023-04-15T16:51:57.368Z,4.68
2023-04-15T16:54:23.882Z,4.63
2023-04-15T16:56:50.411Z,4.88
2023-04-15T16:59:17.046Z,4.60
2023-04-15T17:01:43.677Z,10.07
2023-04-15T17:04:10.424Z,6.72
2023-04-15T17:06:36.922Z,17.95
2023-04-15T17:09:03.641Z,22.02
2023-04-15T17:11:31.228Z,8.20
2023-04-15T17:13:57.747Z,27.85
2023-04-15T17:16:25.320Z,10.50
2023-04-15T17:18:51.929Z,10.32
2023-04-15T17:21:18.533Z,11.25
2023-04-15T17:23:45.116Z,20.42
2023-04-15T17:26:11.536Z,18.77
2023-04-15T17:28:38.004Z,19.90
2023-04-15T17:31:05.056Z,18.98
2023-04-15T17:33:59.168Z,10.20
2023-04-15T17:36:18.220Z,26.10
2023-04-15T17:38:45.510Z,15.13
2023-04-15T17:41:12.132Z,8.90
2023-04-15T17:43:38.595Z,7.53
2023-04-15T17:46:07.154Z,6.53
2023-04-15T17:48:34.406Z,5.95
2023-04-15T17:51:00.858Z,5.55
2023-04-15T17:53:27.317Z,6.03
2023-04-15T17:55:53.813Z,6.53
2023-04-15T17:58:20.410Z,6.88
2023-04-15T18:00:47.497Z,5.60
2023-04-15T18:03:14.329Z,6.35
2023-04-15T18:05:42.650Z,5.85
2023-04-15T18:08:09.496Z,6.97
2023-04-15T18:10:36.781Z,7.40
2023-04-15T18:13:03.450Z,5.35
2023-04-15T18:15:31.224Z,5.75
2023-04-15T18:18:00.542Z,6.25
2023-04-15T18:20:27.862Z,6.47
2023-04-15T18:22:54.444Z,6.88
2023-04-15T18:25:20.988Z,6.38
2023-04-15T18:27:48.565Z,6.45
2023-04-15T18:30:15.012Z,6.70
2023-04-15T18:32:41.549Z,6.90
2023-04-15T18:35:08.486Z,7.32
2023-04-15T18:37:35.396Z,7.22
2023-04-15T18:40:02.091Z,8.90
2023-04-15T18:42:29.034Z,7.93
2023-04-15T18:44:55.532Z,7.95
2023-04-15T18:47:22.121Z,8.63
2023-04-15T18:49:48.670Z,8.90
2023-04-15T18:52:15.099Z,7.97
2023-04-15T18:54:41.537Z,8.63
2023-04-15T18:57:08.014Z,8.40
2023-04-15T18:59:34.729Z,8.52
2023-04-15T19:02:03.521Z,7.95
2023-04-15T19:04:30.065Z,8.25
2023-04-15T19:06:56.983Z,8.05
2023-04-15T19:09:23.694Z,8.88
2023-04-15T19:11:52.232Z,9.25
2023-04-15T19:14:18.661Z,8.85
2023-04-15T19:16:45.147Z,8.02
2023-04-15T19:19:14.524Z,9.32
2023-04-15T19:21:41.555Z,8.70
2023-04-15T19:24:08.609Z,9.30
2023-04-15T19:26:36.957Z,9.05
2023-04-15T19:29:05.056Z,8.65
2023-04-15T19:31:31.817Z,9.52
2023-04-15T19:33:58.273Z,8.77
2023-04-15T19:36:25.334Z,8.75
2023-04-15T19:38:51.848Z,9.27
2023-04-15T19:41:18.262Z,9.35
2023-04-15T19:43:44.753Z,9.02
2023-04-15T19:46:13.191Z,9.98
2023-04-15T19:48:40.351Z,9.70
2023-04-15T19:51:06.860Z,9.88
2023-04-15T19:53:33.534Z,8.23
2023-04-15T19:56:00.358Z,9.27
2023-04-15T19:58:26.831Z,9.32
2023-04-15T20:00:53.513Z,10.13
2023-04-15T20:03:20.519Z,9.70
2023-04-15T20:05:47.272Z,10.18
2023-04-15T20:08:13.704Z,9.95
2023-04-15T20:10:40.176Z,9.77
2023-04-15T20:13:06.644Z,9.88
2023-04-15T20:15:33.141Z,10.00
2023-04-15T20:17:59.610Z,9.55
2023-04-15T20:20:26.325Z,9.98
2023-04-15T20:22:53.110Z,10.93
2023-04-15T20:25:19.729Z,10.30
2023-04-15T20:27:47.592Z,10.60
2023-04-15T20:30:14.151Z,10.25
2023-04-15T20:32:40.762Z,10.75
2023-04-15T20:35:07.687Z,10.55
2023-04-15T20:37:37.698Z,10.30
2023-04-15T20:40:07.445Z,9.40
2023-04-15T20:42:34.496Z,10.63
2023-04-15T20:45:01.964Z,10.25
2023-04-15T20:47:28.558Z,11.50
2023-04-15T20:49:55.427Z,11.15
2023-04-15T20:52:21.889Z,11.65
2023-04-15T20:54:48.472Z,12.38
2023-04-15T20:57:14.973Z,11.57
2023-04-15T20:59:41.358Z,11.68
2023-04-15T21:02:07.978Z,12.25
2023-04-15T21:04:34.513Z,11.32
2023-04-15T21:07:00.950Z,11.93
2023-04-15T21:09:27.465Z,10.90
2023-04-15T21:12:01.159Z,12.73
2023-04-15T21:14:28.631Z,10.85
2023-04-15T21:16:56.586Z,11.75
2023-04-15T21:19:23.247Z,10.27
2023-04-15T21:21:49.701Z,11.15
2023-04-15T21:24:16.170Z,10.88
2023-04-15T21:26:42.611Z,11.68
2023-04-15T21:29:11.455Z,11.23
2023-04-15T21:31:38.523Z,12.38
2023-04-15T21:34:05.405Z,12.25
2023-04-15T21:36:32.174Z,12.70
2023-04-15T21:38:58.786Z,13.90
2023-04-15T21:41:25.794Z,14.27
2023-04-15T21:43:52.783Z,11.75
2023-04-15T21:46:22.088Z,11.85
2023-04-15T21:48:50.506Z,13.27
2023-04-15T21:51:17.012Z,12.05
2023-04-15T21:53:43.447Z,12.90
2023-04-15T21:56:10.059Z,13.55
2023-04-15T21:58:36.785Z,13.93
2023-04-15T22:01:04.667Z,13.27
2023-04-15T22:03:34.977Z,14.45
2023-04-15T22:06:03.235Z,12.57
2023-04-15T22:08:36.076Z,12.38
2023-04-15T22:11:08.732Z,12.13
2023-04-15T22:13:35.472Z,13.68
2023-04-15T22:16:02.452Z,14.23
2023-04-15T22:18:28.897Z,12.90
2023-04-15T22:20:56.212Z,12.65
2023-04-15T22:23:22.710Z,13.27
2023-04-15T22:25:49.139Z,13.93
2023-04-15T22:28:15.541Z,13.65
2023-04-15T22:30:42.322Z,14.02
2023-04-15T22:33:09.906Z,14.23
2023-04-15T22:35:37.421Z,13.88
2023-04-15T22:38:04.947Z,13.93
2023-04-15T22:40:31.559Z,13.48
2023-04-15T22:42:58.081Z,13.98
2023-04-15T22:45:24.531Z,14.65
2023-04-15T22:47:51.076Z,14.32
2023-04-15T22:50:17.760Z,13.45
2023-04-15T22:52:46.175Z,14.07
2023-04-15T22:55:13.075Z,14.88
2023-04-15T22:57:39.738Z,13.32
2023-04-15T23:00:07.365Z,13.15
2023-04-15T23:02:34.782Z,15.63
2023-04-15T23:05:01.784Z,14.50
2023-04-15T23:07:39.281Z,13.13
2023-04-15T23:10:06.491Z,14.90
2023-04-15T23:12:32.909Z,14.45
2023-04-15T23:14:59.310Z,13.45
2023-04-15T23:17:26.707Z,13.07
2023-04-15T23:19:53.205Z,13.23
2023-04-15T23:22:19.685Z,15.63
2023-04-15T23:24:46.241Z,14.82
2023-04-15T23:27:12.711Z,13.93
2023-04-15T23:29:39.163Z,14.13
2023-04-15T23:32:06.127Z,14.18
2023-04-15T23:34:32.630Z,13.15
2023-04-15T23:36:59.053Z,13.95
2023-04-15T23:39:25.654Z,16.13
2023-04-15T23:41:52.561Z,14.25
2023-04-15T23:44:19.048Z,15.65
2023-04-15T23:46:45.774Z,14.95
2023-04-15T23:49:12.501Z,16.38
2023-04-15T23:51:39.207Z,16.02
2023-04-15T23:54:05.769Z,15.32
2023-04-15T23:56:32.248Z,15.15
2023-04-15T23:58:58.659Z,16.13
